sensor_id;sensor_type;location;lat;lon;timestamp;pressure;altitude;pressure_sealevel;temperature;humidity
69219;BME280;56232;53.384;-2.732;2022-07-17T00:00:20;102130.96;;;17.19;27.60
69219;BME280;56232;53.384;-2.732;2022-07-17T00:02:45;102133.48;;;17.19;27.56
69219;BME280;56232;53.384;-2.732;2022-07-17T00:05:10;102134.15;;;17.66;27.59
69219;BME280;56232;53.384;-2.732;2022-07-17T00:07:35;102134.32;;;17.06;27.69
69219;BME280;56232;53.384;-2.732;2022-07-17T00:10:01;102128.90;;;17.56;27.74
69219;BME280;56232;53.384;-2.732;2022-07-17T00:12:31;102124.79;;;17.59;27.75
69219;BME280;56232;53.384;-2.732;2022-07-17T00:14:52;102122.95;;;16.58;27.78
69219;BME280;56232;53.384;-2.732;2022-07-17T00:17:17;102118.81;;;17.73;28.73
69219;BME280;56232;53.384;-2.732;2022-07-17T00:19:43;102116.60;;;16.82;28.48
69219;BME280;56232;53.384;-2.732;2022-07-17T00:22:08;102116.54;;;18.15;28.38
69219;BME280;56232;53.384;-2.732;2022-07-17T00:24:33;102116.77;;;17.73;28.12
69219;BME280;56232;53.384;-2.732;2022-07-17T00:26:59;102116.29;;;18.29;28.06
69219;BME280;56232;53.384;-2.732;2022-07-17T00:29:24;102117.48;;;18.41;28.02
69219;BME280;56232;53.384;-2.732;2022-07-17T00:31:49;102114.34;;;18.01;28.01
69219;BME280;56232;53.384;-2.732;2022-07-17T00:34:15;102114.69;;;17.54;27.77
69219;BME280;56232;53.384;-2.732;2022-07-17T00:36:40;102114.52;;;18.82;27.64
69219;BME280;56232;53.384;-2.732;2022-07-17T00:39:06;102114.09;;;18.55;27.65
69219;BME280;56232;53.384;-2.732;2022-07-17T00:41:32;102113.33;;;19.22;27.52
69219;BME280;56232;53.384;-2.732;2022-07-17T00:44:02;102120.95;;;18.31;27.37
69219;BME280;56232;53.384;-2.732;2022-07-17T00:46:23;102126.86;;;18.93;27.31
69219;BME280;56232;53.384;-2.732;2022-07-17T00:48:48;102133.14;;;17.86;27.33
69219;BME280;56232;53.384;-2.732;2022-07-17T00:51:14;102134.70;;;18.41;27.32
69219;BME280;56232;53.384;-2.732;2022-07-17T00:53:40;102133.41;;;18.00;27.24
69219;BME280;56232;53.384;-2.732;2022-07-17T00:56:05;102127.79;;;19.15;27.27
69219;BME280;56232;53.384;-2.732;2022-07-17T00:58:34;102122.35;;;19.56;27.41
69219;BME280;56232;53.384;-2.732;2022-07-17T01:00:56;102122.17;;;18.50;27.34
69219;BME280;56232;53.384;-2.732;2022-07-17T01:03:24;102123.25;;;19.16;27.19
69219;BME280;56232;53.384;-2.732;2022-07-17T01:05:48;102122.88;;;18.11;27.08
69219;BME280;56232;53.384;-2.732;2022-07-17T01:08:13;102124.59;;;18.64;27.03
69219;BME280;56232;53.384;-2.732;2022-07-17T01:10:38;102122.34;;;17.63;27.02
69219;BME280;56232;53.384;-2.732;2022-07-17T01:13:04;102118.00;;;18.67;27.00
69219;BME280;56232;53.384;-2.732;2022-07-17T01:15:29;102121.74;;;18.69;26.96
69219;BME280;56232;53.384;-2.732;2022-07-17T01:17:55;102122.53;;;18.22;27.00
69219;BME280;56232;53.384;-2.732;2022-07-17T01:20:20;102126.29;;;18.25;26.97
69219;BME280;56232;53.384;-2.732;2022-07-17T01:22:48;102131.18;;;18.68;26.97
69219;BME280;56232;53.384;-2.732;2022-07-17T01:25:12;102131.88;;;19.35;26.91
69219;BME280;56232;53.384;-2.732;2022-07-17T01:27:37;102137.55;;;18.20;26.92
69219;BME280;56232;53.384;-2.732;2022-07-17T01:30:03;102132.77;;;18.20;26.96
69219;BME280;56232;53.384;-2.732;2022-07-17T01:32:31;102126.76;;;18.65;26.97
69219;BME280;56232;53.384;-2.732;2022-07-17T01:34:53;102124.11;;;17.67;26.94
69219;BME280;56232;53.384;-2.732;2022-07-17T01:37:18;102126.81;;;18.65;26.93
69219;BME280;56232;53.384;-2.732;2022-07-17T01:39:44;102126.98;;;18.62;27.16
69219;BME280;56232;53.384;-2.732;2022-07-17T01:42:09;102125.76;;;18.62;27.21
69219;BME280;56232;53.384;-2.732;2022-07-17T01:44:34;102121.24;;;18.62;27.33
69219;BME280;56232;53.384;-2.732;2022-07-17T01:47:00;102115.12;;;18.69;27.54
69219;BME280;56232;53.384;-2.732;2022-07-17T01:49:26;102105.89;;;18.55;27.83
69219;BME280;56232;53.384;-2.732;2022-07-17T01:51:50;102095.75;;;18.43;28.15
69219;BME280;56232;53.384;-2.732;2022-07-17T01:54:16;102097.11;;;18.34;28.51
69219;BME280;56232;53.384;-2.732;2022-07-17T01:56:41;102100.70;;;18.27;28.55
69219;BME280;56232;53.384;-2.732;2022-07-17T01:59:06;102106.53;;;17.89;28.39
69219;BME280;56232;53.384;-2.732;2022-07-17T02:01:31;102114.17;;;19.18;28.28
69219;BME280;56232;53.384;-2.732;2022-07-17T02:03:56;102103.96;;;18.65;28.17
69219;BME280;56232;53.384;-2.732;2022-07-17T02:06:22;102072.82;;;18.57;28.99
69219;BME280;56232;53.384;-2.732;2022-07-17T02:08:47;102051.44;;;18.21;29.64
69219;BME280;56232;53.384;-2.732;2022-07-17T02:11:12;102059.31;;;18.14;29.79
69219;BME280;56232;53.384;-2.732;2022-07-17T02:13:38;102062.56;;;18.82;30.22
69219;BME280;56232;53.384;-2.732;2022-07-17T02:16:04;102063.47;;;17.75;30.10
69219;BME280;56232;53.384;-2.732;2022-07-17T02:18:28;102045.84;;;18.35;30.98
69219;BME280;56232;53.384;-2.732;2022-07-17T02:20:54;102040.60;;;17.75;31.10
69219;BME280;56232;53.384;-2.732;2022-07-17T02:23:19;102053.10;;;18.25;30.54
69219;BME280;56232;53.384;-2.732;2022-07-17T02:25:45;102059.32;;;18.17;30.56
69219;BME280;56232;53.384;-2.732;2022-07-17T02:28:10;102058.31;;;18.29;30.06
69219;BME280;56232;53.384;-2.732;2022-07-17T02:30:36;102059.52;;;18.99;30.13
69219;BME280;56232;53.384;-2.732;2022-07-17T02:33:01;102053.39;;;18.51;30.15
69219;BME280;56232;53.384;-2.732;2022-07-17T02:35:27;102047.81;;;19.18;30.69
69219;BME280;56232;53.384;-2.732;2022-07-17T02:37:52;102044.57;;;18.65;30.88
69219;BME280;56232;53.384;-2.732;2022-07-17T02:40:17;102054.55;;;18.28;30.97
69219;BME280;56232;53.384;-2.732;2022-07-17T02:42:43;102058.11;;;19.43;30.72
69219;BME280;56232;53.384;-2.732;2022-07-17T02:45:09;102061.70;;;18.75;30.45
69219;BME280;56232;53.384;-2.732;2022-07-17T02:47:35;102058.55;;;18.67;30.37
69219;BME280;56232;53.384;-2.732;2022-07-17T02:50:00;102050.16;;;18.54;30.20
69219;BME280;56232;53.384;-2.732;2022-07-17T02:52:27;102042.27;;;18.46;30.12
69219;BME280;56232;53.384;-2.732;2022-07-17T02:54:50;102041.99;;;18.38;30.30
69219;BME280;56232;53.384;-2.732;2022-07-17T02:57:16;102043.56;;;18.42;30.04
69219;BME280;56232;53.384;-2.732;2022-07-17T02:59:40;102047.59;;;18.45;29.73
69219;BME280;56232;53.384;-2.732;2022-07-17T03:02:05;102052.58;;;18.41;29.31
69219;BME280;56232;53.384;-2.732;2022-07-17T03:04:31;102049.02;;;18.91;29.16
69219;BME280;56232;53.384;-2.732;2022-07-17T03:06:56;102041.41;;;18.19;29.34
69219;BME280;56232;53.384;-2.732;2022-07-17T03:09:22;102044.06;;;18.17;29.08
69219;BME280;56232;53.384;-2.732;2022-07-17T03:11:48;102045.42;;;18.24;28.97
69219;BME280;56232;53.384;-2.732;2022-07-17T03:14:13;102043.08;;;17.75;28.83
69219;BME280;56232;53.384;-2.732;2022-07-17T03:16:38;102038.49;;;18.65;28.82
69219;BME280;56232;53.384;-2.732;2022-07-17T03:19:04;102030.76;;;17.88;29.32
69219;BME280;56232;53.384;-2.732;2022-07-17T03:21:30;102040.60;;;19.07;29.23
69219;BME280;56232;53.384;-2.732;2022-07-17T03:23:55;102054.89;;;18.11;28.83
69219;BME280;56232;53.384;-2.732;2022-07-17T03:26:20;102058.09;;;18.19;29.16
69219;BME280;56232;53.384;-2.732;2022-07-17T03:28:46;102051.81;;;18.72;29.28
69219;BME280;56232;53.384;-2.732;2022-07-17T03:31:11;102045.23;;;18.18;29.18
69219;BME280;56232;53.384;-2.732;2022-07-17T03:33:36;102042.73;;;18.81;28.99
69219;BME280;56232;53.384;-2.732;2022-07-17T03:36:02;102029.16;;;18.17;29.17
69219;BME280;56232;53.384;-2.732;2022-07-17T03:38:27;102013.02;;;18.70;29.63
69219;BME280;56232;53.384;-2.732;2022-07-17T03:40:53;102003.93;;;18.00;29.86
69219;BME280;56232;53.384;-2.732;2022-07-17T03:43:18;102002.51;;;17.97;29.89
69219;BME280;56232;53.384;-2.732;2022-07-17T03:45:44;101996.66;;;18.00;29.94
69219;BME280;56232;53.384;-2.732;2022-07-17T03:48:09;101998.31;;;18.91;31.66
69219;BME280;56232;53.384;-2.732;2022-07-17T03:50:34;102000.77;;;18.62;32.57
69219;BME280;56232;53.384;-2.732;2022-07-17T03:52:59;102008.53;;;18.30;33.25
69219;BME280;56232;53.384;-2.732;2022-07-17T03:55:26;102025.57;;;17.61;32.87
69219;BME280;56232;53.384;-2.732;2022-07-17T03:57:50;102033.22;;;18.20;32.54
69219;BME280;56232;53.384;-2.732;2022-07-17T04:00:16;102031.89;;;17.87;31.99
69219;BME280;56232;53.384;-2.732;2022-07-17T04:02:41;102023.00;;;17.48;31.74
69219;BME280;56232;53.384;-2.732;2022-07-17T04:05:06;101992.82;;;18.56;32.38
69219;BME280;56232;53.384;-2.732;2022-07-17T04:07:31;101966.01;;;17.91;32.55
69219;BME280;56232;53.384;-2.732;2022-07-17T04:09:58;101982.43;;;18.10;33.40
69219;BME280;56232;53.384;-2.732;2022-07-17T04:12:23;101992.89;;;17.61;33.43
69219;BME280;56232;53.384;-2.732;2022-07-17T04:14:48;101994.18;;;17.61;33.44
69219;BME280;56232;53.384;-2.732;2022-07-17T04:17:14;102007.81;;;16.77;33.99
69219;BME280;56232;53.384;-2.732;2022-07-17T04:19:39;102006.12;;;17.58;34.14
69219;BME280;56232;53.384;-2.732;2022-07-17T04:22:04;102003.60;;;17.60;33.66
69219;BME280;56232;53.384;-2.732;2022-07-17T04:24:30;102013.65;;;17.63;33.48
69219;BME280;56232;53.384;-2.732;2022-07-17T04:26:55;102013.93;;;17.67;33.65
69219;BME280;56232;53.384;-2.732;2022-07-17T04:29:21;102011.52;;;17.54;34.09
69219;BME280;56232;53.384;-2.732;2022-07-17T04:31:46;102000.31;;;17.42;34.38
69219;BME280;56232;53.384;-2.732;2022-07-17T04:34:11;101997.07;;;17.53;33.87
69219;BME280;56232;53.384;-2.732;2022-07-17T04:36:37;102008.15;;;17.60;33.96
69219;BME280;56232;53.384;-2.732;2022-07-17T04:39:02;102013.79;;;17.90;33.46
69219;BME280;56232;53.384;-2.732;2022-07-17T04:41:28;102023.25;;;18.22;33.03
69219;BME280;56232;53.384;-2.732;2022-07-17T04:43:53;102025.71;;;17.33;32.88
69219;BME280;56232;53.384;-2.732;2022-07-17T04:46:19;102023.93;;;18.06;32.86
69219;BME280;56232;53.384;-2.732;2022-07-17T04:48:44;102028.41;;;17.47;32.94
69219;BME280;56232;53.384;-2.732;2022-07-17T04:51:10;102032.32;;;17.52;33.05
69219;BME280;56232;53.384;-2.732;2022-07-17T04:53:35;102027.26;;;17.47;33.30
69219;BME280;56232;53.384;-2.732;2022-07-17T04:56:00;102027.15;;;18.18;33.77
69219;BME280;56232;53.384;-2.732;2022-07-17T04:58:31;102029.91;;;18.17;34.36
69219;BME280;56232;53.384;-2.732;2022-07-17T05:00:50;102037.19;;;18.28;34.11
69219;BME280;56232;53.384;-2.732;2022-07-17T05:03:15;102042.97;;;18.54;33.93
69219;BME280;56232;53.384;-2.732;2022-07-17T05:05:41;102046.03;;;18.21;32.63
69219;BME280;56232;53.384;-2.732;2022-07-17T05:08:06;102049.97;;;17.92;32.75
69219;BME280;56232;53.384;-2.732;2022-07-17T05:10:32;102049.43;;;18.64;32.81
69219;BME280;56232;53.384;-2.732;2022-07-17T05:12:57;102051.50;;;18.39;32.79
69219;BME280;56232;53.384;-2.732;2022-07-17T05:15:23;102046.60;;;18.82;32.67
69219;BME280;56232;53.384;-2.732;2022-07-17T05:17:48;102042.26;;;19.13;32.70
69219;BME280;56232;53.384;-2.732;2022-07-17T05:20:13;102037.28;;;18.85;32.57
69219;BME280;56232;53.384;-2.732;2022-07-17T05:22:39;102038.55;;;19.49;32.63
69219;BME280;56232;53.384;-2.732;2022-07-17T05:25:05;102040.10;;;19.89;32.40
69219;BME280;56232;53.384;-2.732;2022-07-17T05:27:30;102035.88;;;19.75;32.00
69219;BME280;56232;53.384;-2.732;2022-07-17T05:29:55;102035.08;;;20.13;32.12
69219;BME280;56232;53.384;-2.732;2022-07-17T05:32:21;102034.74;;;19.91;32.08
69219;BME280;56232;53.384;-2.732;2022-07-17T05:34:46;102027.65;;;20.30;31.89
69219;BME280;56232;53.384;-2.732;2022-07-17T05:37:11;102030.60;;;20.56;31.41
69219;BME280;56232;53.384;-2.732;2022-07-17T05:39:36;102029.70;;;20.60;31.61
69219;BME280;56232;53.384;-2.732;2022-07-17T05:42:01;102037.90;;;20.87;31.20
69219;BME280;56232;53.384;-2.732;2022-07-17T05:44:27;102037.90;;;21.59;31.27
69219;BME280;56232;53.384;-2.732;2022-07-17T05:46:52;102033.30;;;20.74;31.17
69219;BME280;56232;53.384;-2.732;2022-07-17T05:49:18;102028.62;;;20.78;31.40
69219;BME280;56232;53.384;-2.732;2022-07-17T05:51:43;102020.67;;;20.33;31.32
69219;BME280;56232;53.384;-2.732;2022-07-17T05:54:09;102016.43;;;20.51;30.90
69219;BME280;56232;53.384;-2.732;2022-07-17T05:56:34;102018.29;;;20.88;31.36
69219;BME280;56232;53.384;-2.732;2022-07-17T05:59:00;102022.89;;;20.22;31.47
69219;BME280;56232;53.384;-2.732;2022-07-17T06:01:27;102017.06;;;20.19;31.74
69219;BME280;56232;53.384;-2.732;2022-07-17T06:03:51;102010.15;;;19.64;31.96
69219;BME280;56232;53.384;-2.732;2022-07-17T06:06:17;102007.71;;;20.21;31.46
69219;BME280;56232;53.384;-2.732;2022-07-17T06:08:42;102007.76;;;19.85;30.36
69219;BME280;56232;53.384;-2.732;2022-07-17T06:11:08;102013.29;;;20.63;29.27
69219;BME280;56232;53.384;-2.732;2022-07-17T06:13:34;102012.22;;;20.79;29.33
69219;BME280;56232;53.384;-2.732;2022-07-17T06:15:59;102009.41;;;21.24;28.97
69219;BME280;56232;53.384;-2.732;2022-07-17T06:18:25;102013.39;;;20.87;28.23
69219;BME280;56232;53.384;-2.732;2022-07-17T06:20:50;102017.68;;;21.54;29.06
69219;BME280;56232;53.384;-2.732;2022-07-17T06:23:16;102021.65;;;21.28;28.84
69219;BME280;56232;53.384;-2.732;2022-07-17T06:25:41;102029.36;;;21.98;28.72
69219;BME280;56232;53.384;-2.732;2022-07-17T06:28:07;102029.40;;;22.84;28.68
69219;BME280;56232;53.384;-2.732;2022-07-17T06:30:32;102033.32;;;22.43;28.41
69219;BME280;56232;53.384;-2.732;2022-07-17T06:32:58;102032.43;;;22.90;28.31
69219;BME280;56232;53.384;-2.732;2022-07-17T06:35:25;102034.17;;;23.17;28.02
69219;BME280;56232;53.384;-2.732;2022-07-17T06:37:50;102026.21;;;24.34;27.33
69219;BME280;56232;53.384;-2.732;2022-07-17T06:40:15;102029.77;;;24.66;26.25
69219;BME280;56232;53.384;-2.732;2022-07-17T06:42:41;102022.08;;;26.90;24.95
69219;BME280;56232;53.384;-2.732;2022-07-17T06:45:07;102014.78;;;27.65;23.52
69219;BME280;56232;53.384;-2.732;2022-07-17T06:47:32;102017.15;;;27.51;23.46
69219;BME280;56232;53.384;-2.732;2022-07-17T06:49:58;102023.50;;;27.15;23.44
69219;BME280;56232;53.384;-2.732;2022-07-17T06:52:24;102026.28;;;26.90;23.68
69219;BME280;56232;53.384;-2.732;2022-07-17T06:54:48;102027.44;;;26.96;23.51
69219;BME280;56232;53.384;-2.732;2022-07-17T06:57:14;102025.52;;;25.77;23.46
69219;BME280;56232;53.384;-2.732;2022-07-17T06:59:40;102024.56;;;26.16;23.39
69219;BME280;56232;53.384;-2.732;2022-07-17T07:02:05;102026.12;;;26.08;23.19
69219;BME280;56232;53.384;-2.732;2022-07-17T07:04:31;102022.41;;;26.14;23.08
69219;BME280;56232;53.384;-2.732;2022-07-17T07:06:56;102019.51;;;27.58;22.33
69219;BME280;56232;53.384;-2.732;2022-07-17T07:09:21;102012.67;;;28.34;21.32
69219;BME280;56232;53.384;-2.732;2022-07-17T07:11:46;102013.19;;;28.19;21.15
69219;BME280;56232;53.384;-2.732;2022-07-17T07:14:12;102010.54;;;29.75;20.53
69219;BME280;56232;53.384;-2.732;2022-07-17T07:16:38;102014.56;;;30.33;20.05
69219;BME280;56232;53.384;-2.732;2022-07-17T07:19:03;102009.49;;;30.38;18.82
69219;BME280;56232;53.384;-2.732;2022-07-17T07:21:28;102011.62;;;30.57;18.97
69219;BME280;56232;53.384;-2.732;2022-07-17T07:23:53;102007.26;;;29.98;18.74
69219;BME280;56232;53.384;-2.732;2022-07-17T07:26:19;102004.41;;;30.02;18.82
69219;BME280;56232;53.384;-2.732;2022-07-17T07:28:45;102005.89;;;30.06;18.90
69219;BME280;56232;53.384;-2.732;2022-07-17T07:31:10;101994.91;;;30.72;18.78
69219;BME280;56232;53.384;-2.732;2022-07-17T07:33:36;101999.31;;;32.26;17.50
69219;BME280;56232;53.384;-2.732;2022-07-17T07:36:01;101998.11;;;33.06;16.46
69219;BME280;56232;53.384;-2.732;2022-07-17T07:38:27;101998.96;;;32.94;15.88
69219;BME280;56232;53.384;-2.732;2022-07-17T07:40:52;101997.92;;;31.93;16.62
69219;BME280;56232;53.384;-2.732;2022-07-17T07:43:18;101992.34;;;32.53;16.47
69219;BME280;56232;53.384;-2.732;2022-07-17T07:45:43;101987.28;;;33.19;15.87
69219;BME280;56232;53.384;-2.732;2022-07-17T07:48:09;101988.32;;;32.84;16.17
69219;BME280;56232;53.384;-2.732;2022-07-17T07:50:34;101988.31;;;32.10;16.43
69219;BME280;56232;53.384;-2.732;2022-07-17T07:53:00;101987.71;;;31.46;16.58
69219;BME280;56232;53.384;-2.732;2022-07-17T07:55:27;101989.71;;;30.53;17.05
69219;BME280;56232;53.384;-2.732;2022-07-17T08:00:17;101987.27;;;30.48;17.59
69219;BME280;56232;53.384;-2.732;2022-07-17T08:02:42;101983.44;;;29.63;18.08
69219;BME280;56232;53.384;-2.732;2022-07-17T08:05:08;101987.64;;;29.49;18.73
69219;BME280;56232;53.384;-2.732;2022-07-17T08:07:35;101984.50;;;30.19;18.77
69219;BME280;56232;53.384;-2.732;2022-07-17T08:09:58;101979.18;;;29.87;18.49
69219;BME280;56232;53.384;-2.732;2022-07-17T08:12:24;101975.44;;;30.83;18.26
69219;BME280;56232;53.384;-2.732;2022-07-17T08:14:49;101979.40;;;31.52;17.44
69219;BME280;56232;53.384;-2.732;2022-07-17T08:17:15;101989.37;;;32.30;17.15
69219;BME280;56232;53.384;-2.732;2022-07-17T08:19:40;101989.05;;;33.21;16.29
69219;BME280;56232;53.384;-2.732;2022-07-17T08:22:05;101989.92;;;33.08;16.36
69219;BME280;56232;53.384;-2.732;2022-07-17T08:24:31;101982.80;;;33.13;16.46
69219;BME280;56232;53.384;-2.732;2022-07-17T08:26:56;101982.72;;;33.02;16.22
69219;BME280;56232;53.384;-2.732;2022-07-17T08:29:21;101981.02;;;32.32;16.26
69219;BME280;56232;53.384;-2.732;2022-07-17T08:31:47;101986.16;;;31.87;16.85
69219;BME280;56232;53.384;-2.732;2022-07-17T08:34:13;101992.78;;;32.01;17.01
69219;BME280;56232;53.384;-2.732;2022-07-17T08:36:38;101997.86;;;31.78;16.92
69219;BME280;56232;53.384;-2.732;2022-07-17T08:39:03;101995.93;;;32.99;17.10
69219;BME280;56232;53.384;-2.732;2022-07-17T08:41:29;102001.15;;;32.03;17.00
69219;BME280;56232;53.384;-2.732;2022-07-17T08:43:54;102002.52;;;32.36;17.32
69219;BME280;56232;53.384;-2.732;2022-07-17T08:46:23;102003.06;;;32.63;17.00
69219;BME280;56232;53.384;-2.732;2022-07-17T08:48:46;102004.56;;;32.00;17.28
69219;BME280;56232;53.384;-2.732;2022-07-17T08:51:11;102001.27;;;31.95;16.79
69219;BME280;56232;53.384;-2.732;2022-07-17T08:53:36;102006.06;;;32.52;16.91
69219;BME280;56232;53.384;-2.732;2022-07-17T08:56:01;102009.68;;;33.31;16.70
69219;BME280;56232;53.384;-2.732;2022-07-17T08:58:27;102000.70;;;33.56;16.70
69219;BME280;56232;53.384;-2.732;2022-07-17T09:00:52;102000.58;;;33.51;16.71
69219;BME280;56232;53.384;-2.732;2022-07-17T09:03:18;102000.32;;;33.23;16.66
69219;BME280;56232;53.384;-2.732;2022-07-17T09:05:43;101996.12;;;32.60;16.38
69219;BME280;56232;53.384;-2.732;2022-07-17T09:08:15;101994.98;;;33.01;16.80
69219;BME280;56232;53.384;-2.732;2022-07-17T09:10:36;101993.26;;;32.39;16.71
69219;BME280;56232;53.384;-2.732;2022-07-17T09:13:00;101996.41;;;32.93;16.57
69219;BME280;56232;53.384;-2.732;2022-07-17T09:15:25;101993.15;;;32.71;16.67
69219;BME280;56232;53.384;-2.732;2022-07-17T09:17:51;101997.31;;;32.62;16.97
69219;BME280;56232;53.384;-2.732;2022-07-17T09:20:15;101999.05;;;32.64;17.03
69219;BME280;56232;53.384;-2.732;2022-07-17T09:22:42;101993.26;;;32.62;17.11
69219;BME280;56232;53.384;-2.732;2022-07-17T09:25:06;101988.81;;;32.74;17.10
69219;BME280;56232;53.384;-2.732;2022-07-17T09:27:32;101980.79;;;32.76;16.97
69219;BME280;56232;53.384;-2.732;2022-07-17T09:29:59;101976.94;;;32.60;16.89
69219;BME280;56232;53.384;-2.732;2022-07-17T09:32:25;101977.08;;;32.22;17.04
69219;BME280;56232;53.384;-2.732;2022-07-17T09:34:49;101972.76;;;33.09;17.12
69219;BME280;56232;53.384;-2.732;2022-07-17T09:37:13;101979.20;;;32.80;17.26
69219;BME280;56232;53.384;-2.732;2022-07-17T09:39:38;101975.70;;;32.15;17.41
69219;BME280;56232;53.384;-2.732;2022-07-17T09:42:04;101972.64;;;32.13;17.58
69219;BME280;56232;53.384;-2.732;2022-07-17T09:44:29;101970.71;;;31.95;17.78
69219;BME280;56232;53.384;-2.732;2022-07-17T09:46:55;101969.48;;;31.30;17.87
69219;BME280;56232;53.384;-2.732;2022-07-17T09:49:23;101967.47;;;31.13;18.08
69219;BME280;56232;53.384;-2.732;2022-07-17T09:51:46;101965.65;;;30.91;18.23
69219;BME280;56232;53.384;-2.732;2022-07-17T09:54:11;101961.70;;;30.91;18.28
69219;BME280;56232;53.384;-2.732;2022-07-17T09:56:38;101959.11;;;31.09;18.36
69219;BME280;56232;53.384;-2.732;2022-07-17T09:59:03;101959.00;;;30.83;18.31
69219;BME280;56232;53.384;-2.732;2022-07-17T10:01:28;101957.35;;;31.10;18.35
69219;BME280;56232;53.384;-2.732;2022-07-17T10:03:53;101957.24;;;30.91;18.52
69219;BME280;56232;53.384;-2.732;2022-07-17T10:06:19;101958.21;;;30.88;18.61
69219;BME280;56232;53.384;-2.732;2022-07-17T10:08:44;101960.22;;;30.50;18.57
69219;BME280;56232;53.384;-2.732;2022-07-17T10:11:10;101961.67;;;30.95;18.69
69219;BME280;56232;53.384;-2.732;2022-07-17T10:13:36;101965.33;;;30.76;18.69
69219;BME280;56232;53.384;-2.732;2022-07-17T10:16:01;101965.78;;;31.21;18.70
69219;BME280;56232;53.384;-2.732;2022-07-17T10:18:35;101966.98;;;31.55;18.48
69219;BME280;56232;53.384;-2.732;2022-07-17T10:20:52;101964.03;;;31.84;18.08
69219;BME280;56232;53.384;-2.732;2022-07-17T10:23:17;101967.05;;;32.02;18.14
69219;BME280;56232;53.384;-2.732;2022-07-17T10:25:42;101969.10;;;32.17;18.10
69219;BME280;56232;53.384;-2.732;2022-07-17T10:28:08;101974.36;;;32.03;18.02
69219;BME280;56232;53.384;-2.732;2022-07-17T10:30:33;101974.91;;;32.64;17.54
69219;BME280;56232;53.384;-2.732;2022-07-17T10:33:00;101973.23;;;32.94;17.17
69219;BME280;56232;53.384;-2.732;2022-07-17T10:35:26;101965.56;;;32.45;17.13
69219;BME280;56232;53.384;-2.732;2022-07-17T10:37:50;101964.37;;;32.92;17.00
69219;BME280;56232;53.384;-2.732;2022-07-17T10:40:17;101963.29;;;32.54;16.99
69219;BME280;56232;53.384;-2.732;2022-07-17T10:42:43;101958.52;;;33.63;16.99
69219;BME280;56232;53.384;-2.732;2022-07-17T10:45:07;101957.97;;;33.86;16.81
69219;BME280;56232;53.384;-2.732;2022-07-17T10:49:57;101953.03;;;35.01;15.69
69219;BME280;56232;53.384;-2.732;2022-07-17T10:52:22;101946.32;;;35.87;15.47
69219;BME280;56232;53.384;-2.732;2022-07-17T10:54:48;101944.94;;;36.01;14.66
69219;BME280;56232;53.384;-2.732;2022-07-17T10:57:13;101936.76;;;36.50;14.54
69219;BME280;56232;53.384;-2.732;2022-07-17T10:59:41;101935.61;;;35.79;14.75
69219;BME280;56232;53.384;-2.732;2022-07-17T11:02:04;101931.62;;;35.56;14.05
69219;BME280;56232;53.384;-2.732;2022-07-17T11:04:36;101920.68;;;35.66;14.31
69219;BME280;56232;53.384;-2.732;2022-07-17T11:06:55;101920.61;;;35.41;14.78
69219;BME280;56232;53.384;-2.732;2022-07-17T11:09:20;101910.39;;;35.16;14.32
69219;BME280;56232;53.384;-2.732;2022-07-17T11:11:48;101907.12;;;34.33;14.67
69219;BME280;56232;53.384;-2.732;2022-07-17T11:14:13;101908.84;;;34.32;15.13
69219;BME280;56232;53.384;-2.732;2022-07-17T11:16:37;101909.10;;;34.26;15.07
69219;BME280;56232;53.384;-2.732;2022-07-17T11:19:03;101909.78;;;34.83;15.23
69219;BME280;56232;53.384;-2.732;2022-07-17T11:21:28;101915.82;;;34.22;15.41
69219;BME280;56232;53.384;-2.732;2022-07-17T11:23:55;101916.13;;;34.54;15.31
69219;BME280;56232;53.384;-2.732;2022-07-17T11:26:19;101916.27;;;35.13;15.04
69219;BME280;56232;53.384;-2.732;2022-07-17T11:28:44;101911.09;;;34.84;15.03
69219;BME280;56232;53.384;-2.732;2022-07-17T11:31:16;101908.11;;;34.67;14.63
69219;BME280;56232;53.384;-2.732;2022-07-17T11:33:35;101900.56;;;34.66;14.66
69219;BME280;56232;53.384;-2.732;2022-07-17T11:36:01;101905.69;;;34.51;14.42
69219;BME280;56232;53.384;-2.732;2022-07-17T11:38:28;101900.78;;;35.08;14.78
69219;BME280;56232;53.384;-2.732;2022-07-17T11:40:52;101904.52;;;35.03;14.50
69219;BME280;56232;53.384;-2.732;2022-07-17T11:43:17;101905.94;;;35.27;14.56
69219;BME280;56232;53.384;-2.732;2022-07-17T11:45:43;101910.60;;;34.25;14.81
69219;BME280;56232;53.384;-2.732;2022-07-17T11:48:08;101906.63;;;34.55;14.65
69219;BME280;56232;53.384;-2.732;2022-07-17T11:50:34;101901.42;;;34.98;14.09
69219;BME280;56232;53.384;-2.732;2022-07-17T11:53:01;101897.22;;;34.27;14.42
69219;BME280;56232;53.384;-2.732;2022-07-17T11:55:34;101894.09;;;34.24;14.19
69219;BME280;56232;53.384;-2.732;2022-07-17T11:57:50;101890.29;;;34.56;14.44
69219;BME280;56232;53.384;-2.732;2022-07-17T12:00:19;101885.48;;;34.64;14.36
69219;BME280;56232;53.384;-2.732;2022-07-17T12:02:42;101883.85;;;34.70;14.29
69219;BME280;56232;53.384;-2.732;2022-07-17T12:05:08;101880.30;;;33.98;14.21
69219;BME280;56232;53.384;-2.732;2022-07-17T12:07:39;101877.50;;;33.93;14.29
69219;BME280;56232;53.384;-2.732;2022-07-17T12:10:14;101869.83;;;34.61;14.01
69219;BME280;56232;53.384;-2.732;2022-07-17T12:12:26;101870.61;;;34.28;13.52
69219;BME280;56232;53.384;-2.732;2022-07-17T12:14:50;101866.60;;;34.42;13.77
69219;BME280;56232;53.384;-2.732;2022-07-17T12:17:14;101864.19;;;34.95;13.70
69219;BME280;56232;53.384;-2.732;2022-07-17T12:19:40;101864.19;;;35.26;13.27
69219;BME280;56232;53.384;-2.732;2022-07-17T12:22:05;101864.22;;;35.13;13.46
69219;BME280;56232;53.384;-2.732;2022-07-17T12:24:32;101864.88;;;34.70;13.76
69219;BME280;56232;53.384;-2.732;2022-07-17T12:26:59;101865.92;;;35.34;13.71
69219;BME280;56232;53.384;-2.732;2022-07-17T12:29:22;101868.23;;;34.53;13.79
69219;BME280;56232;53.384;-2.732;2022-07-17T12:31:48;101864.20;;;34.08;13.54
69219;BME280;56232;53.384;-2.732;2022-07-17T12:34:13;101856.53;;;35.21;13.59